createdAt,value
2023-03-02T00:01:53.902Z,35.50
2023-03-02T00:04:31.422Z,34.37
2023-03-02T00:07:02.224Z,32.83
2023-03-02T00:09:29.477Z,36.30
2023-03-02T00:11:56.333Z,34.27
2023-03-02T00:14:23.297Z,34.37
2023-03-02T00:16:50.001Z,33.60
2023-03-02T00:19:16.527Z,32.83
2023-03-02T00:21:45.371Z,34.40
2023-03-02T00:24:11.937Z,34.40
2023-03-02T00:26:38.449Z,36.07
2023-03-02T00:29:04.920Z,38.00
2023-03-02T00:31:31.449Z,34.27
2023-03-02T00:33:57.915Z,41.03
2023-03-02T00:36:24.658Z,36.33
2023-03-02T00:38:54.840Z,35.67
2023-03-02T00:41:21.643Z,36.70
2023-03-02T00:43:49.218Z,31.90
2023-03-02T00:46:22.817Z,34.03
2023-03-02T00:48:49.963Z,33.80
2023-03-02T00:51:16.978Z,34.67
2023-03-02T00:53:43.743Z,36.03
2023-03-02T00:56:10.678Z,32.27
2023-03-02T00:58:37.385Z,38.83
2023-03-02T01:01:09.827Z,35.43
2023-03-02T01:03:37.146Z,32.53
2023-03-02T01:06:04.728Z,34.27
2023-03-02T01:08:31.176Z,33.20
2023-03-02T01:11:01.177Z,36.27
2023-03-02T01:13:28.489Z,32.23
2023-03-02T01:16:03.037Z,36.97
2023-03-02T01:18:29.951Z,33.83
2023-03-02T01:21:11.307Z,32.20
2023-03-02T01:23:37.777Z,36.03
2023-03-02T01:26:04.348Z,29.87
2023-03-02T01:28:30.954Z,32.60
2023-03-02T01:30:57.472Z,33.87
2023-03-02T01:33:23.907Z,30.33
2023-03-02T01:35:50.537Z,30.17
2023-03-02T01:38:21.064Z,29.00
2023-03-02T01:40:51.213Z,29.83
2023-03-02T01:43:20.761Z,30.10
2023-03-02T01:45:57.819Z,34.13
2023-03-02T01:48:31.689Z,27.47
2023-03-02T01:50:59.005Z,33.93
2023-03-02T01:53:28.758Z,30.07
2023-03-02T01:55:56.649Z,30.30
2023-03-02T01:58:25.376Z,29.03
2023-03-02T02:00:52.792Z,32.33
2023-03-02T02:03:26.422Z,32.37
2023-03-02T02:06:13.330Z,33.40
2023-03-02T02:08:40.060Z,30.23
2023-03-02T02:11:06.668Z,33.27
2023-03-02T02:13:33.322Z,31.90
2023-03-02T02:15:59.905Z,33.30
2023-03-02T02:18:26.845Z,32.60
2023-03-02T02:20:55.130Z,31.27
2023-03-02T02:23:28.127Z,35.70
2023-03-02T02:26:10.518Z,33.73
2023-03-02T02:28:57.628Z,27.80
2023-03-02T02:31:30.724Z,35.90
2023-03-02T02:34:03.540Z,33.83
2023-03-02T02:36:37.866Z,31.67
2023-03-02T02:39:07.021Z,30.87
2023-03-02T02:41:37.744Z,33.80
2023-03-02T02:44:04.930Z,31.87
2023-03-02T02:46:33.041Z,35.30
2023-03-02T02:49:02.111Z,32.13
2023-03-02T02:51:29.540Z,31.30
2023-03-02T02:54:01.570Z,31.70
2023-03-02T02:56:37.211Z,31.10
2023-03-02T02:59:16.496Z,31.47
2023-03-02T03:01:44.412Z,33.13
2023-03-02T03:04:14.334Z,32.70
2023-03-02T03:07:07.265Z,35.63
2023-03-02T03:09:33.897Z,35.47
2023-03-02T03:12:11.290Z,33.93
2023-03-02T03:14:41.050Z,33.93
2023-03-02T03:17:12.176Z,35.60
2023-03-02T03:19:42.348Z,33.20
2023-03-02T03:22:13.504Z,34.90
2023-03-02T03:24:42.805Z,35.07
2023-03-02T03:27:11.760Z,31.73
2023-03-02T03:29:40.290Z,36.43
2023-03-02T03:32:07.090Z,39.37
2023-03-02T03:34:40.514Z,35.63
2023-03-02T03:37:12.003Z,31.97
2023-03-02T03:39:38.693Z,32.17
2023-03-02T03:42:06.198Z,32.33
2023-03-02T03:44:33.437Z,29.70
2023-03-02T03:47:00.533Z,33.07
2023-03-02T03:49:27.364Z,29.93
2023-03-02T03:51:56.382Z,30.73
2023-03-02T03:54:22.937Z,39.07
2023-03-02T03:56:50.662Z,33.93
2023-03-02T03:59:23.498Z,40.87
2023-03-02T04:02:01.468Z,35.63
2023-03-02T04:04:31.058Z,42.70
2023-03-02T04:06:57.635Z,40.33
2023-03-02T04:09:27.217Z,34.50
2023-03-02T04:11:58.326Z,34.50
2023-03-02T04:14:25.745Z,36.23
2023-03-02T04:16:53.099Z,34.33
2023-03-02T04:19:20.065Z,39.27
2023-03-02T04:21:52.543Z,38.07
2023-03-02T04:24:21.116Z,34.73
2023-03-02T04:26:49.184Z,33.67
2023-03-02T04:29:16.257Z,34.43
2023-03-02T04:31:43.045Z,31.17
2023-03-02T04:34:10.132Z,34.67
2023-03-02T04:36:40.135Z,30.70
2023-03-02T04:39:07.999Z,32.77
2023-03-02T04:41:34.764Z,34.30
2023-03-02T04:44:01.246Z,29.80
2023-03-02T04:46:31.051Z,29.03
2023-03-02T04:49:00.315Z,34.87
2023-03-02T04:51:31.289Z,36.30
2023-03-02T04:54:01.713Z,37.27
2023-03-02T04:56:32.716Z,33.23
2023-03-02T04:59:02.549Z,32.43
2023-03-02T05:01:32.021Z,39.90
2023-03-02T05:04:03.172Z,38.67
2023-03-02T05:06:31.662Z,42.53
2023-03-02T05:09:00.514Z,37.47
2023-03-02T05:11:27.352Z,34.47
2023-03-02T05:13:56.689Z,38.77
2023-03-02T05:16:25.087Z,33.27
2023-03-02T05:18:51.676Z,39.70
2023-03-02T05:21:18.967Z,35.17
2023-03-02T05:23:45.711Z,36.77
2023-03-02T05:26:12.757Z,33.57
2023-03-02T05:28:40.172Z,38.30
2023-03-02T05:31:07.287Z,36.87
2023-03-02T05:33:34.557Z,37.67
2023-03-02T05:36:04.332Z,37.00
2023-03-02T05:38:34.432Z,36.93
2023-03-02T05:41:02.343Z,35.60
2023-03-02T05:43:28.917Z,33.60
2023-03-02T05:46:02.617Z,38.00
2023-03-02T05:48:33.834Z,40.67
2023-03-02T05:51:03.241Z,44.23
2023-03-02T05:53:32.218Z,37.63
2023-03-02T05:55:58.772Z,37.33
2023-03-02T05:58:25.224Z,36.67
2023-03-02T06:00:51.987Z,37.10
2023-03-02T06:03:18.918Z,43.50
2023-03-02T06:05:50.654Z,36.93
2023-03-02T06:08:18.685Z,34.73
2023-03-02T06:10:45.826Z,38.67
2023-03-02T06:13:12.336Z,32.10
2023-03-02T06:15:40.501Z,40.93
2023-03-02T06:18:07.082Z,39.70
2023-03-02T06:20:36.801Z,39.47
2023-03-02T06:23:06.598Z,41.20
2023-03-02T06:25:38.492Z,42.07
2023-03-02T06:28:07.740Z,38.33
2023-03-02T06:30:37.643Z,39.90
2023-03-02T06:33:04.567Z,35.50
2023-03-02T06:35:31.166Z,37.17
2023-03-02T06:37:57.781Z,36.53
2023-03-02T06:40:24.265Z,39.20
2023-03-02T06:42:50.716Z,35.00
2023-03-02T06:45:17.262Z,39.03
2023-03-02T06:47:43.690Z,37.40
2023-03-02T06:50:11.053Z,39.17
2023-03-02T06:52:37.637Z,36.20
2023-03-02T06:55:08.194Z,35.10
2023-03-02T06:57:37.729Z,40.17
2023-03-02T07:00:11.483Z,35.20
2023-03-02T07:02:37.978Z,38.27
2023-03-02T07:05:07.343Z,38.73
2023-03-02T07:07:33.856Z,49.53
2023-03-02T07:10:00.417Z,40.73
2023-03-02T07:12:27.201Z,38.47
2023-03-02T07:14:53.888Z,35.97
2023-03-02T07:17:20.316Z,43.37
2023-03-02T07:19:47.252Z,37.20
2023-03-02T07:22:13.741Z,38.97
2023-03-02T07:24:40.240Z,41.67
2023-03-02T07:27:09.702Z,37.10
2023-03-02T07:29:39.343Z,40.97
2023-03-02T07:32:12.474Z,41.80
2023-03-02T07:34:39.421Z,35.67
2023-03-02T07:37:08.465Z,37.13
2023-03-02T07:39:34.993Z,40.27
2023-03-02T07:42:02.134Z,39.63
2023-03-02T07:44:31.149Z,50.30
2023-03-02T07:46:58.894Z,39.80
2023-03-02T07:49:25.708Z,47.60
2023-03-02T07:51:52.635Z,42.00
2023-03-02T07:54:19.620Z,43.57
2023-03-02T07:56:46.457Z,38.40
2023-03-02T07:59:14.217Z,38.80
2023-03-02T08:01:40.807Z,41.50
2023-03-02T08:04:10.215Z,34.70
2023-03-02T08:06:42.513Z,41.17
2023-03-02T08:09:09.325Z,38.63
2023-03-02T08:11:37.893Z,41.10
2023-03-02T08:14:04.320Z,35.83
2023-03-02T08:16:30.921Z,37.57
2023-03-02T08:18:59.743Z,39.80
2023-03-02T08:21:27.305Z,39.60
2023-03-02T08:23:53.833Z,41.43
2023-03-02T08:26:20.796Z,36.93
2023-03-02T08:28:47.475Z,45.80
2023-03-02T08:31:14.287Z,41.43
2023-03-02T08:33:41.143Z,41.00
2023-03-02T08:36:16.434Z,38.27
2023-03-02T08:38:43.858Z,46.07
2023-03-02T08:41:14.400Z,42.20
2023-03-02T08:43:40.997Z,43.60
2023-03-02T08:46:12.250Z,45.23
2023-03-02T08:48:39.437Z,40.77
2023-03-02T08:51:15.899Z,35.57
2023-03-02T08:53:46.302Z,40.10
2023-03-02T08:56:26.531Z,43.60
2023-03-02T08:58:55.068Z,38.90
2023-03-02T09:01:24.944Z,40.43
2023-03-02T09:03:51.884Z,39.20
2023-03-02T09:06:19.010Z,38.67
2023-03-02T09:08:45.506Z,45.90
2023-03-02T09:11:12.266Z,40.20
2023-03-02T09:13:38.920Z,41.10
2023-03-02T09:16:10.777Z,42.80
2023-03-02T09:18:38.542Z,42.47
2023-03-02T09:21:08.092Z,40.37
2023-03-02T09:23:39.554Z,42.87
2023-03-02T09:26:09.210Z,41.07
2023-03-02T09:28:43.122Z,41.40
2023-03-02T09:31:09.905Z,43.13
2023-03-02T09:33:39.635Z,39.77
2023-03-02T09:36:14.085Z,39.43
2023-03-02T09:38:40.751Z,38.90
2023-03-02T09:41:22.011Z,38.00
2023-03-02T09:44:10.496Z,45.63
2023-03-02T09:47:12.545Z,40.93
2023-03-02T09:49:45.472Z,41.50
2023-03-02T09:52:25.365Z,39.13
2023-03-02T09:54:52.871Z,41.73
2023-03-02T09:57:26.556Z,36.67
2023-03-02T10:00:04.026Z,42.47
2023-03-02T10:02:50.213Z,46.43
2023-03-02T10:05:25.148Z,48.23
2023-03-02T10:07:52.213Z,34.03
2023-03-02T10:10:19.144Z,40.47
2023-03-02T10:13:14.852Z,43.03
2023-03-02T10:15:47.777Z,40.23
2023-03-02T10:18:51.845Z,41.73
2023-03-02T10:21:27.634Z,47.33
2023-03-02T10:24:07.253Z,41.70
2023-03-02T10:26:38.849Z,45.83
2023-03-02T10:29:37.910Z,43.30
2023-03-02T10:32:33.131Z,39.10
2023-03-02T10:35:10.841Z,46.63
2023-03-02T10:37:40.536Z,44.40
2023-03-02T10:40:28.896Z,45.80
2023-03-02T10:42:57.706Z,44.03
2023-03-02T10:45:32.505Z,45.87
2023-03-02T10:48:09.425Z,42.17
2023-03-02T10:50:39.727Z,41.70
2023-03-02T10:53:15.929Z,47.23
2023-03-02T10:55:48.083Z,44.73
2023-03-02T10:58:26.107Z,40.85
2023-03-02T11:01:02.248Z,44.22
2023-03-02T11:03:33.344Z,39.97
2023-03-02T11:06:18.480Z,45.13
2023-03-02T11:08:45.426Z,40.70
2023-03-02T11:11:23.095Z,41.55
2023-03-02T11:13:50.543Z,39.70
2023-03-02T11:16:22.916Z,36.72
2023-03-02T11:18:58.728Z,43.67
2023-03-02T11:21:40.560Z,38.95
2023-03-02T11:24:18.348Z,36.10
2023-03-02T11:26:53.550Z,42.97
2023-03-02T11:29:50.990Z,49.10
2023-03-02T11:32:31.108Z,40.22
2023-03-02T11:35:17.913Z,38.63
2023-03-02T11:37:57.418Z,34.92
2023-03-02T11:40:43.084Z,39.55
2023-03-02T11:43:11.548Z,39.38
2023-03-02T11:45:47.929Z,41.38
2023-03-02T11:48:39.294Z,37.78
2023-03-02T11:51:16.822Z,38.47
2023-03-02T11:53:53.048Z,39.00
2023-03-02T11:56:19.884Z,38.70
2023-03-02T11:58:56.192Z,37.50
2023-03-02T12:01:28.364Z,40.25
2023-03-02T12:03:55.036Z,41.15
2023-03-02T12:06:21.433Z,35.92
2023-03-02T12:08:50.318Z,39.42
2023-03-02T12:11:17.243Z,41.75
2023-03-02T12:14:02.390Z,33.55
2023-03-02T12:16:37.735Z,39.05
2023-03-02T12:19:16.496Z,37.03
2023-03-02T12:22:08.030Z,37.75
2023-03-02T12:24:40.477Z,38.47
2023-03-02T12:27:12.783Z,41.78
2023-03-02T12:29:45.726Z,37.30
2023-03-02T12:32:18.603Z,38.03
2023-03-02T12:34:56.781Z,36.80
2023-03-02T12:37:44.792Z,37.15
2023-03-02T12:40:38.331Z,36.88
2023-03-02T12:43:17.106Z,34.47
2023-03-02T12:46:15.206Z,48.30
2023-03-02T12:48:51.922Z,35.55
2023-03-02T12:51:22.464Z,39.33
2023-03-02T12:53:50.502Z,39.35
2023-03-02T12:56:26.570Z,39.78
2023-03-02T12:58:54.183Z,49.67
2023-03-02T13:01:30.169Z,39.25
2023-03-02T13:03:58.126Z,52.13
2023-03-02T13:06:28.837Z,38.47
2023-03-02T13:09:00.385Z,47.70
2023-03-02T13:11:32.903Z,42.25
2023-03-02T13:14:01.166Z,45.33
2023-03-02T13:16:33.747Z,38.85
2023-03-02T13:19:11.201Z,42.92
2023-03-02T13:21:42.757Z,41.92
2023-03-02T13:24:33.581Z,36.78
2023-03-02T13:27:15.197Z,50.22
2023-03-02T13:29:41.689Z,39.58
2023-03-02T13:32:15.723Z,42.58
2023-03-02T13:34:51.121Z,37.72
2023-03-02T13:37:28.402Z,41.03
2023-03-02T13:39:57.157Z,40.85
2023-03-02T13:42:34.846Z,37.00
2023-03-02T13:45:29.377Z,36.92
2023-03-02T13:47:58.072Z,41.95
2023-03-02T13:50:30.639Z,39.35
2023-03-02T13:53:05.341Z,38.25
2023-03-02T13:55:31.828Z,34.50
2023-03-02T13:57:59.041Z,40.38
2023-03-02T14:00:30.931Z,38.58
2023-03-02T14:02:57.443Z,36.88
2023-03-02T14:05:27.066Z,39.40
2023-03-02T14:07:53.741Z,38.47
2023-03-02T14:10:20.658Z,36.80
2023-03-02T14:13:02.438Z,41.92
2023-03-02T14:15:29.096Z,41.45
2023-03-02T14:17:55.725Z,39.30
2023-03-02T14:20:22.227Z,37.33
2023-03-02T14:22:49.006Z,46.17
2023-03-02T14:25:15.725Z,45.60
2023-03-02T14:27:47.232Z,38.40
2023-03-02T14:30:15.387Z,40.67
2023-03-02T14:32:42.670Z,33.42
2023-03-02T14:35:12.525Z,35.38
2023-03-02T14:37:48.569Z,37.67
2023-03-02T14:40:24.019Z,44.38
2023-03-02T14:42:51.919Z,35.53
2023-03-02T14:45:18.896Z,39.53
2023-03-02T14:47:45.507Z,41.80
2023-03-02T14:50:16.394Z,37.35
2023-03-02T14:52:49.699Z,39.10
2023-03-02T14:55:27.206Z,43.03
2023-03-02T14:57:57.880Z,38.83
2023-03-02T15:00:25.571Z,35.22
2023-03-02T15:02:52.466Z,37.90
2023-03-02T15:05:19.451Z,45.22
2023-03-02T15:07:48.714Z,45.05
2023-03-02T15:10:19.271Z,42.67
2023-03-02T15:12:45.845Z,40.88
2023-03-02T15:15:14.970Z,44.22
2023-03-02T15:17:44.043Z,39.75
2023-03-02T15:20:15.647Z,43.58
2023-03-02T15:22:45.221Z,40.72
2023-03-02T15:25:14.612Z,47.78
2023-03-02T15:27:43.839Z,46.90
2023-03-02T15:30:13.698Z,44.67
2023-03-02T15:32:42.259Z,41.30
2023-03-02T15:35:09.553Z,40.83
2023-03-02T15:37:36.541Z,45.70
2023-03-02T15:40:03.581Z,38.95
2023-03-02T15:42:30.347Z,42.35
2023-03-02T15:44:57.062Z,37.75
2023-03-02T15:47:23.915Z,37.20
2023-03-02T15:49:50.769Z,42.17
2023-03-02T15:52:19.801Z,43.40
2023-03-02T15:54:46.669Z,41.45
2023-03-02T15:57:19.350Z,41.92
2023-03-02T15:59:46.499Z,39.05
2023-03-02T16:02:13.817Z,41.03
2023-03-02T16:04:42.380Z,48.70
2023-03-02T16:07:08.960Z,41.28
2023-03-02T16:09:35.433Z,36.42
2023-03-02T16:12:01.982Z,42.10
2023-03-02T16:14:28.595Z,37.97
2023-03-02T16:16:55.082Z,46.72
2023-03-02T16:19:21.693Z,36.58
2023-03-02T16:21:48.327Z,39.33
2023-03-02T16:24:16.952Z,41.80
2023-03-02T16:26:47.707Z,40.75
2023-03-02T16:29:14.382Z,36.30
2023-03-02T16:31:44.936Z,42.72
2023-03-02T16:34:14.290Z,35.15
2023-03-02T16:36:44.948Z,40.08
2023-03-02T16:39:14.797Z,40.95
2023-03-02T16:41:46.226Z,38.45
2023-03-02T16:44:14.579Z,39.05
2023-03-02T16:46:44.753Z,38.63
2023-03-02T16:49:14.710Z,38.25
2023-03-02T16:51:44.719Z,38.65
2023-03-02T16:54:16.408Z,39.22
2023-03-02T16:56:45.249Z,38.33
2023-03-02T16:59:14.712Z,37.55
2023-03-02T17:01:44.157Z,45.10
2023-03-02T17:04:18.401Z,49.88
2023-03-02T17:06:59.886Z,36.63
2023-03-02T17:09:26.963Z,46.67
2023-03-02T17:11:53.435Z,48.25
2023-03-02T17:14:20.040Z,44.20
2023-03-02T17:16:46.586Z,40.45
2023-03-02T17:19:13.162Z,45.08
2023-03-02T17:21:43.430Z,38.85
2023-03-02T17:24:12.284Z,40.35
2023-03-02T17:26:38.825Z,40.80
2023-03-02T17:29:05.579Z,41.73
2023-03-02T17:31:32.124Z,45.25
2023-03-02T17:33:58.687Z,39.25
2023-03-02T17:36:25.384Z,40.43
2023-03-02T17:38:52.169Z,45.08
2023-03-02T17:41:19.007Z,39.15
2023-03-02T17:43:45.610Z,42.72
2023-03-02T17:46:16.341Z,41.13
2023-03-02T17:48:43.458Z,54.30
2023-03-02T17:51:14.993Z,41.75
2023-03-02T17:53:45.892Z,46.00
2023-03-02T17:56:18.918Z,44.43
2023-03-02T17:58:46.255Z,46.00
2023-03-02T18:01:15.718Z,46.60
2023-03-02T18:03:45.504Z,43.05
2023-03-02T18:06:24.036Z,41.13
2023-03-02T18:09:12.072Z,44.03
2023-03-02T18:11:43.185Z,39.28
2023-03-02T18:15:32.155Z,47.35
2023-03-02T18:25:16.429Z,42.77
2023-03-02T18:28:14.580Z,43.40
2023-03-02T18:30:43.159Z,44.57
2023-03-02T18:33:16.798Z,48.00
2023-03-02T18:35:43.455Z,43.53
2023-03-02T18:38:16.140Z,46.50
2023-03-02T18:40:45.650Z,57.23
2023-03-02T18:43:15.417Z,47.67
2023-03-02T18:45:44.969Z,54.07
2023-03-02T18:48:14.627Z,43.57
2023-03-02T18:50:42.657Z,48.70
2023-03-02T18:53:11.852Z,49.33
2023-03-02T18:55:45.398Z,46.47
2023-03-02T18:58:37.753Z,49.57
2023-03-02T19:01:18.716Z,47.17
2023-03-02T19:03:51.259Z,48.20
2023-03-02T19:06:23.220Z,45.13
2023-03-02T19:08:49.926Z,55.47
2023-03-02T19:11:30.919Z,44.43
2023-03-02T19:13:57.808Z,47.23
2023-03-02T19:16:27.703Z,45.60
2023-03-02T19:19:10.264Z,41.53
2023-03-02T19:21:37.080Z,43.63
2023-03-02T19:24:03.866Z,49.83
2023-03-02T19:26:30.385Z,48.30
2023-03-02T19:28:56.858Z,40.23
2023-03-02T19:31:24.321Z,43.47
2023-03-02T19:33:50.864Z,47.73
2023-03-02T19:36:17.417Z,53.87
2023-03-02T19:38:46.967Z,42.30
2023-03-02T19:41:18.089Z,49.63
2023-03-02T19:44:07.687Z,43.97
2023-03-02T19:46:34.257Z,44.23
2023-03-02T19:49:00.742Z,50.63
2023-03-02T19:51:27.226Z,41.57
2023-03-02T19:53:54.728Z,43.73
2023-03-02T19:56:21.462Z,46.50
2023-03-02T20:01:47.422Z,47.27
2023-03-02T20:04:15.238Z,50.00
2023-03-02T20:06:44.724Z,43.73
2023-03-02T20:09:15.963Z,48.30
2023-03-02T20:11:44.622Z,48.70
2023-03-02T20:14:27.661Z,54.10
2023-03-02T20:17:01.056Z,48.07
2023-03-02T20:19:27.617Z,53.27
2023-03-02T20:21:54.157Z,54.63
2023-03-02T20:24:20.729Z,46.83
2023-03-02T20:26:47.687Z,47.63
2023-03-02T20:29:17.844Z,49.23
2023-03-02T20:31:46.990Z,46.17
2023-03-02T20:34:18.720Z,48.77
2023-03-02T20:36:45.829Z,45.10
2023-03-02T20:39:17.494Z,44.37
2023-03-02T20:41:45.192Z,52.83
2023-03-02T20:44:14.897Z,45.10
2023-03-02T20:46:49.266Z,53.10
2023-03-02T20:49:16.370Z,49.30
2023-03-02T20:51:52.741Z,51.10
2023-03-02T20:54:21.040Z,51.30
2023-03-02T20:56:47.671Z,47.17
2023-03-02T20:59:17.055Z,50.53
2023-03-02T21:01:46.532Z,45.47
2023-03-02T21:04:17.228Z,47.27
2023-03-02T21:06:47.025Z,51.73
2023-03-02T21:09:18.000Z,44.28
2023-03-02T21:11:47.837Z,49.00
2023-03-02T21:14:17.635Z,48.83
2023-03-02T21:16:47.308Z,42.87
2023-03-02T21:19:18.885Z,51.47
2023-03-02T21:21:46.211Z,47.00
2023-03-02T21:24:18.595Z,43.10
2023-03-02T21:26:46.975Z,39.80
2023-03-02T21:29:18.020Z,49.43
2023-03-02T21:31:47.893Z,51.03
2023-03-02T21:34:18.959Z,54.97
2023-03-02T21:36:46.632Z,51.10
2023-03-02T21:39:17.438Z,49.13
2023-03-02T21:41:46.697Z,50.40
2023-03-02T21:44:14.088Z,51.00
2023-03-02T21:46:40.748Z,51.57
2023-03-02T21:49:07.406Z,49.53
2023-03-02T21:51:35.068Z,48.90
2023-03-02T21:54:02.014Z,45.63
2023-03-02T21:56:29.060Z,46.37
2023-03-02T21:58:57.593Z,53.77
2023-03-02T22:01:25.930Z,48.43
2023-03-02T22:03:53.250Z,47.37
2023-03-02T22:06:25.480Z,48.17
2023-03-02T22:08:52.720Z,67.17
2023-03-02T22:11:25.023Z,59.20
2023-03-02T22:13:54.047Z,70.57
2023-03-02T22:16:26.239Z,62.70
2023-03-02T22:18:58.361Z,57.57
2023-03-02T22:21:30.101Z,61.00
2023-03-02T22:24:05.539Z,59.47
2023-03-02T22:26:35.102Z,53.63
2023-03-02T22:29:33.664Z,64.40
2023-03-02T22:32:14.050Z,57.63
2023-03-02T22:34:41.000Z,53.93
2023-03-02T22:37:32.878Z,48.67
2023-03-02T22:40:18.790Z,51.47
2023-03-02T22:42:45.301Z,48.63
2023-03-02T22:45:18.521Z,56.73
2023-03-02T22:47:49.141Z,43.53
2023-03-02T22:50:36.673Z,51.20
2023-03-02T22:53:10.162Z,47.03
2023-03-02T22:55:42.350Z,46.90
2023-03-02T22:58:29.707Z,48.67
2023-03-02T23:01:01.090Z,54.20
2023-03-02T23:03:37.300Z,46.77
2023-03-02T23:06:20.058Z,47.90
2023-03-02T23:08:46.517Z,56.20
2023-03-02T23:11:21.822Z,55.73
2023-03-02T23:13:50.493Z,48.37
2023-03-02T23:16:26.922Z,46.03
2023-03-02T23:18:57.067Z,49.50
2023-03-02T23:21:42.690Z,52.73
2023-03-02T23:24:09.152Z,50.40
2023-03-02T23:26:35.999Z,46.90
2023-03-02T23:29:02.853Z,50.77
2023-03-02T23:31:29.322Z,51.53
2023-03-02T23:33:55.861Z,50.57
2023-03-02T23:36:22.469Z,44.53
2023-03-02T23:38:52.994Z,44.00
2023-03-02T23:41:21.613Z,49.13
2023-03-02T23:43:48.097Z,53.37
2023-03-02T23:46:14.957Z,55.47
2023-03-02T23:48:42.589Z,42.23
2023-03-02T23:51:09.786Z,46.53
2023-03-02T23:53:36.237Z,52.43
2023-03-02T23:56:02.754Z,53.53
2023-03-02T23:58:29.197Z,52.20
